createdAt,value
2018-09-16T00:02:22.462Z,44.91
2018-09-16T00:04:51.397Z,46.48
2018-09-16T00:07:20.207Z,44.16
2018-09-16T00:09:49.106Z,46.86
2018-09-16T00:12:17.973Z,45.34
2018-09-16T00:14:47.309Z,46.02
2018-09-16T00:17:16.257Z,44.75
2018-09-16T00:19:45.456Z,43.79
2018-09-16T00:22:14.556Z,45.27
2018-09-16T00:24:43.774Z,45.31
2018-09-16T00:27:13.194Z,45.51
2018-09-16T00:29:42.268Z,45.55
2018-09-16T00:32:18.239Z,45.97
2018-09-16T00:34:47.415Z,46.47
2018-09-16T00:37:17.159Z,46.93
2018-09-16T00:39:45.987Z,44.42
2018-09-16T00:42:14.955Z,46.22
2018-09-16T00:44:44.209Z,44.72
2018-09-16T00:47:13.104Z,45.68
2018-09-16T00:49:41.849Z,45.24
2018-09-16T00:52:10.573Z,44.86
2018-09-16T00:54:39.521Z,44.88
2018-09-16T00:57:08.378Z,46.41
2018-09-16T00:59:37.204Z,45.75
2018-09-16T01:02:06.168Z,45.82
2018-09-16T01:04:35.189Z,46.61
2018-09-16T01:07:04.170Z,46.44
2018-09-16T01:09:33.334Z,49.01
2018-09-16T01:12:02.395Z,46.96
2018-09-16T01:14:31.351Z,46.38
2018-09-16T01:17:00.409Z,44.24
2018-09-16T01:19:30.043Z,45.10
2018-09-16T01:21:58.924Z,45.17
2018-09-16T01:24:27.954Z,44.29
2018-09-16T01:26:56.891Z,44.22
2018-09-16T01:29:25.885Z,42.14
2018-09-16T01:31:54.806Z,44.02
2018-09-16T01:34:23.643Z,43.22
2018-09-16T01:36:59.124Z,41.80
2018-09-16T01:39:29.035Z,43.18
2018-09-16T01:41:58.133Z,41.89
2018-09-16T01:44:27.153Z,41.57
2018-09-16T01:46:56.118Z,42.70
2018-09-16T01:49:25.113Z,44.54
2018-09-16T01:51:53.869Z,42.18
2018-09-16T01:54:22.796Z,45.50
2018-09-16T01:56:51.578Z,41.60
2018-09-16T01:59:20.674Z,38.97
2018-09-16T02:01:50.179Z,39.19
2018-09-16T02:04:18.952Z,42.95
2018-09-16T02:06:47.801Z,42.39
2018-09-16T02:09:16.814Z,39.28
2018-09-16T02:11:45.448Z,42.48
2018-09-16T02:14:14.319Z,41.59
2018-09-16T02:16:43.283Z,43.01
2018-09-16T02:19:12.279Z,42.71
2018-09-16T02:21:41.517Z,40.86
2018-09-16T02:24:10.493Z,42.49
2018-09-16T02:26:39.416Z,41.52
2018-09-16T02:29:08.259Z,42.14
2018-09-16T02:31:37.185Z,38.19
2018-09-16T02:34:06.167Z,40.69
2018-09-16T02:36:35.135Z,41.99
2018-09-16T02:39:04.840Z,44.60
2018-09-16T02:41:33.653Z,42.06
2018-09-16T02:44:03.230Z,38.65
2018-09-16T02:46:32.056Z,41.41
2018-09-16T02:49:00.837Z,40.62
2018-09-16T02:51:29.780Z,40.41
2018-09-16T02:53:58.670Z,42.39
2018-09-16T02:56:27.845Z,43.24
2018-09-16T02:58:56.817Z,43.44
2018-09-16T03:01:25.972Z,42.78
2018-09-16T03:03:54.971Z,44.17
2018-09-16T03:06:28.985Z,46.25
2018-09-16T03:08:57.927Z,42.65
2018-09-16T03:11:26.982Z,40.50
2018-09-16T03:13:55.959Z,43.30
2018-09-16T03:16:25.073Z,45.98
2018-09-16T03:18:54.226Z,41.70
2018-09-16T03:21:23.070Z,42.91
2018-09-16T03:23:52.588Z,45.07
2018-09-16T03:26:21.618Z,42.25
2018-09-16T03:28:50.600Z,43.86
2018-09-16T03:31:19.622Z,47.31
2018-09-16T03:33:48.483Z,45.20
2018-09-16T03:36:17.368Z,44.00
2018-09-16T03:38:46.359Z,46.26
2018-09-16T03:41:15.553Z,44.17
2018-09-16T03:43:44.444Z,43.09
2018-09-16T03:46:16.030Z,42.34
2018-09-16T03:48:44.850Z,44.69
2018-09-16T03:51:13.796Z,45.35
2018-09-16T03:53:42.661Z,41.50
2018-09-16T03:56:12.374Z,40.66
2018-09-16T03:58:41.256Z,44.62
2018-09-16T04:01:10.175Z,43.59
2018-09-16T04:03:39.092Z,44.37
2018-09-16T04:06:08.211Z,41.19
2018-09-16T04:08:37.894Z,41.69
2018-09-16T04:11:06.999Z,42.55
2018-09-16T04:13:35.889Z,42.57
2018-09-16T04:16:05.140Z,46.62
2018-09-16T04:18:34.108Z,44.72
2018-09-16T04:21:03.122Z,43.83
2018-09-16T04:23:36.816Z,43.74
2018-09-16T04:26:06.081Z,43.45
2018-09-16T04:28:34.941Z,46.15
2018-09-16T04:31:03.932Z,46.46
2018-09-16T04:33:32.947Z,47.47
2018-09-16T04:36:02.514Z,45.66
2018-09-16T04:38:31.483Z,47.22
2018-09-16T04:41:00.418Z,45.78
2018-09-16T04:43:29.404Z,42.56
2018-09-16T04:45:58.857Z,43.37
2018-09-16T04:48:27.756Z,43.68
2018-09-16T04:50:56.782Z,44.89
2018-09-16T04:53:25.435Z,46.37
2018-09-16T04:55:55.075Z,46.42
2018-09-16T04:58:23.962Z,46.63
2018-09-16T05:00:53.144Z,46.58
2018-09-16T05:03:22.147Z,48.87
2018-09-16T05:05:51.009Z,46.54
2018-09-16T05:08:20.152Z,46.80
2018-09-16T05:10:49.570Z,47.67
2018-09-16T05:13:19.187Z,47.13
2018-09-16T05:15:48.135Z,48.69
2018-09-16T05:18:17.122Z,47.87
2018-09-16T05:20:46.032Z,47.34
2018-09-16T05:23:15.191Z,47.09
2018-09-16T05:25:44.017Z,44.88
2018-09-16T05:28:12.835Z,43.27
2018-09-16T05:30:41.749Z,44.34
2018-09-16T05:33:10.702Z,45.08
2018-09-16T05:35:39.626Z,46.59
2018-09-16T05:38:08.806Z,45.82
2018-09-16T05:40:38.229Z,46.49
2018-09-16T05:43:07.170Z,46.75
2018-09-16T05:45:36.239Z,48.05
2018-09-16T05:48:05.151Z,46.71
2018-09-16T05:50:34.217Z,48.74
2018-09-16T05:53:03.220Z,45.70
2018-09-16T05:55:31.985Z,46.07
2018-09-16T05:58:01.412Z,47.97
2018-09-16T06:00:30.318Z,46.63
2018-09-16T06:02:59.261Z,46.58
2018-09-16T06:05:28.288Z,47.00
2018-09-16T06:07:57.008Z,48.71
2018-09-16T06:10:25.834Z,48.05
2018-09-16T06:12:54.627Z,46.06
2018-09-16T06:15:23.864Z,45.98
2018-09-16T06:17:52.862Z,45.22
2018-09-16T06:20:21.872Z,45.48
2018-09-16T06:22:52.285Z,46.29
2018-09-16T06:25:21.345Z,46.18
2018-09-16T06:27:50.534Z,44.94
2018-09-16T06:30:19.731Z,45.52
2018-09-16T06:32:48.542Z,45.87
2018-09-16T06:35:17.355Z,45.82
2018-09-16T06:37:46.345Z,46.75
2018-09-16T06:40:15.286Z,45.90
2018-09-16T06:42:44.627Z,46.19
2018-09-16T06:45:14.133Z,45.28
2018-09-16T06:47:43.701Z,45.11
2018-09-16T06:50:12.753Z,45.03
2018-09-16T06:52:42.261Z,44.77
2018-09-16T06:55:12.045Z,44.41
2018-09-16T06:57:41.124Z,43.87
2018-09-16T07:00:10.766Z,43.52
2018-09-16T07:02:39.640Z,44.41
2018-09-16T07:05:08.931Z,42.83
2018-09-16T07:07:37.833Z,43.17
2018-09-16T07:10:06.836Z,42.23
2018-09-16T07:12:36.050Z,42.28
2018-09-16T07:15:04.962Z,40.73
2018-09-16T07:17:34.310Z,40.20
2018-09-16T07:20:03.331Z,40.60
2018-09-16T07:22:32.523Z,39.86
2018-09-16T07:25:01.431Z,41.28
2018-09-16T07:27:30.447Z,40.71
2018-09-16T07:30:00.270Z,39.90
2018-09-16T07:32:29.198Z,39.89
2018-09-16T07:34:58.214Z,39.41
2018-09-16T07:37:27.423Z,38.46
2018-09-16T07:39:56.170Z,37.84
2018-09-16T07:42:25.170Z,37.29
2018-09-16T07:44:55.048Z,36.81
2018-09-16T07:47:24.873Z,38.45
2018-09-16T07:49:53.788Z,36.18
2018-09-16T07:52:22.788Z,36.35
2018-09-16T07:54:51.909Z,36.73
2018-09-16T07:57:20.798Z,36.34
2018-09-16T07:59:50.266Z,35.79
2018-09-16T08:02:19.268Z,36.56
2018-09-16T08:04:48.192Z,34.82
2018-09-16T08:07:17.470Z,34.89
2018-09-16T08:09:47.120Z,35.52
2018-09-16T08:12:16.256Z,34.13
2018-09-16T08:14:45.159Z,34.01
2018-09-16T08:17:13.981Z,35.22
2018-09-16T08:19:43.068Z,33.42
2018-09-16T08:22:12.217Z,34.46
2018-09-16T08:24:41.600Z,34.04
2018-09-16T08:27:10.328Z,33.73
2018-09-16T08:29:39.332Z,32.98
2018-09-16T08:32:08.393Z,32.19
2018-09-16T08:34:37.099Z,32.26
2018-09-16T08:37:06.013Z,31.96
2018-09-16T08:39:34.918Z,31.57
2018-09-16T08:42:03.788Z,31.66
2018-09-16T08:44:32.877Z,30.63
2018-09-16T08:47:01.699Z,29.84
2018-09-16T08:49:32.193Z,30.30
2018-09-16T08:52:01.700Z,29.76
2018-09-16T08:54:30.842Z,29.09
2018-09-16T08:57:00.042Z,31.18
2018-09-16T08:59:29.067Z,29.99
2018-09-16T09:01:58.147Z,33.80
2018-09-16T09:04:27.194Z,29.99
2018-09-16T09:06:56.166Z,29.56
2018-09-16T09:09:25.670Z,28.94
2018-09-16T09:11:54.738Z,27.67
2018-09-16T09:14:23.755Z,27.92
2018-09-16T09:16:52.555Z,28.04
2018-09-16T09:19:21.449Z,31.05
2018-09-16T09:21:50.344Z,27.59
2018-09-16T09:24:19.343Z,28.14
2018-09-16T09:26:48.320Z,30.99
2018-09-16T09:29:17.567Z,29.59
2018-09-16T09:31:46.831Z,27.34
2018-09-16T09:34:15.795Z,28.86
2018-09-16T09:36:44.863Z,28.12
2018-09-16T09:39:14.309Z,27.24
2018-09-16T09:41:43.417Z,27.25
2018-09-16T09:44:12.436Z,26.94
2018-09-16T09:46:42.107Z,27.51
2018-09-16T09:49:11.814Z,27.26
2018-09-16T09:51:40.718Z,27.19
2018-09-16T09:54:10.035Z,27.64
2018-09-16T09:56:40.837Z,26.68
2018-09-16T09:59:11.701Z,27.01
2018-09-16T10:01:40.682Z,26.85
2018-09-16T10:05:12.922Z,26.92
2018-09-16T10:07:43.137Z,26.64
2018-09-16T10:10:12.579Z,26.26
2018-09-16T10:12:42.924Z,27.03
2018-09-16T10:15:12.177Z,27.40
2018-09-16T10:17:41.947Z,26.31
2018-09-16T10:20:10.879Z,26.40
2018-09-16T10:22:40.095Z,25.80
2018-09-16T10:25:09.427Z,25.80
2018-09-16T10:27:39.173Z,26.10
2018-09-16T10:30:08.486Z,26.61
2018-09-16T10:32:38.152Z,26.12
2018-09-16T10:35:07.886Z,24.98
2018-09-16T10:37:37.138Z,24.55
2018-09-16T10:40:06.336Z,25.22
2018-09-16T10:42:43.441Z,25.75
2018-09-16T10:45:12.253Z,25.68
2018-09-16T10:47:41.730Z,25.22
2018-09-16T10:50:10.852Z,25.42
2018-09-16T10:52:39.716Z,24.28
2018-09-16T10:55:08.464Z,24.43
2018-09-16T10:57:41.854Z,23.74
2018-09-16T11:00:12.450Z,24.67
2018-09-16T11:02:41.344Z,24.64
2018-09-16T11:05:12.446Z,25.54
2018-09-16T11:07:41.777Z,23.92
2018-09-16T11:10:11.169Z,23.60
2018-09-16T11:12:39.994Z,24.31
2018-09-16T11:15:09.370Z,23.94
2018-09-16T11:17:38.239Z,22.77
2018-09-16T11:20:08.534Z,22.72
2018-09-16T11:22:37.759Z,23.34
2018-09-16T11:25:06.904Z,20.96
2018-09-16T11:27:36.915Z,20.87
2018-09-16T11:30:05.877Z,20.98
2018-09-16T11:32:34.880Z,21.29
2018-09-16T11:35:04.120Z,22.02
2018-09-16T11:37:32.900Z,20.92
2018-09-16T11:40:01.993Z,19.91
2018-09-16T11:42:31.008Z,18.34
2018-09-16T11:44:59.797Z,18.66
2018-09-16T11:47:28.719Z,19.05
2018-09-16T11:49:58.109Z,17.35
2018-09-16T11:52:27.902Z,17.73
2018-09-16T11:54:58.512Z,16.82
2018-09-16T11:57:27.628Z,19.08
2018-09-16T11:59:57.350Z,15.58
2018-09-16T12:02:26.315Z,15.73
2018-09-16T12:04:55.438Z,14.99
2018-09-16T12:07:25.148Z,14.10
2018-09-16T12:09:54.631Z,13.21
2018-09-16T12:12:23.514Z,13.31
2018-09-16T12:14:52.463Z,11.82
2018-09-16T12:17:22.785Z,11.10
2018-09-16T12:19:52.154Z,11.11
2018-09-16T12:22:21.430Z,10.25
2018-09-16T12:24:50.354Z,9.63
2018-09-16T12:27:19.479Z,10.10
2018-09-16T12:29:48.436Z,10.57
2018-09-16T12:32:18.028Z,10.01
2018-09-16T12:34:46.983Z,9.36
2018-09-16T12:37:16.228Z,10.15
2018-09-16T12:39:45.217Z,8.83
2018-09-16T12:42:14.117Z,9.58
2018-09-16T12:44:42.959Z,8.14
2018-09-16T12:47:11.790Z,8.09
2018-09-16T12:49:41.026Z,10.10
2018-09-16T12:52:09.922Z,9.33
2018-09-16T12:54:39.235Z,8.33
2018-09-16T12:57:08.283Z,8.11
2018-09-16T12:59:37.530Z,7.49
2018-09-16T13:02:06.597Z,7.30
2018-09-16T13:04:35.692Z,6.35
2018-09-16T13:07:04.527Z,6.28
2018-09-16T13:09:33.803Z,6.65
2018-09-16T13:12:02.912Z,7.12
2018-09-16T13:14:35.897Z,7.11
2018-09-16T13:17:04.854Z,7.67
2018-09-16T13:19:34.050Z,8.63
2018-09-16T13:22:03.617Z,8.15
2018-09-16T13:24:33.807Z,9.24
2018-09-16T13:27:02.804Z,10.58
2018-09-16T13:29:32.634Z,10.81
2018-09-16T13:32:01.715Z,10.41
2018-09-16T13:34:30.782Z,9.46
2018-09-16T13:36:59.914Z,8.22
2018-09-16T13:39:29.027Z,7.52
2018-09-16T13:41:58.057Z,6.87
2018-09-16T13:44:27.066Z,6.69
2018-09-16T13:46:55.977Z,6.05
2018-09-16T13:49:25.049Z,7.22
2018-09-16T13:51:54.119Z,6.98
2018-09-16T13:54:22.918Z,7.44
2018-09-16T13:56:52.353Z,7.18
2018-09-16T13:59:21.350Z,7.67
2018-09-16T14:01:50.305Z,6.31
2018-09-16T14:04:19.849Z,7.69
2018-09-16T14:06:48.910Z,7.62
2018-09-16T14:09:18.141Z,8.35
2018-09-16T14:11:46.999Z,8.25
2018-09-16T14:14:17.234Z,7.66
2018-09-16T14:16:46.388Z,8.30
2018-09-16T14:19:15.420Z,7.03
2018-09-16T14:21:44.360Z,8.10
2018-09-16T14:24:13.579Z,7.78
2018-09-16T14:26:42.465Z,7.79
2018-09-16T14:29:11.427Z,7.87
2018-09-16T14:31:40.365Z,7.88
2018-09-16T14:34:09.541Z,8.67
2018-09-16T14:42:39.279Z,8.81
2018-09-16T14:45:08.443Z,8.90
2018-09-16T14:47:37.423Z,8.80
2018-09-16T14:50:06.814Z,9.29
2018-09-16T14:52:35.871Z,9.51
2018-09-16T14:55:04.963Z,9.15
2018-09-16T14:57:34.061Z,9.04
2018-09-16T15:00:03.309Z,8.60
2018-09-16T15:02:32.787Z,8.02
2018-09-16T15:05:05.132Z,7.45
2018-09-16T15:07:34.753Z,7.82
2018-09-16T15:10:03.834Z,7.62
2018-09-16T15:12:34.565Z,7.70
2018-09-16T15:15:03.635Z,7.56
2018-09-16T15:17:39.197Z,8.13
2018-09-16T15:20:08.608Z,7.05
2018-09-16T15:22:37.695Z,7.49
2018-09-16T15:25:08.813Z,7.96
2018-09-16T15:27:37.886Z,8.30
2018-09-16T15:30:07.264Z,9.27
2018-09-16T15:32:39.173Z,9.49
2018-09-16T15:35:09.458Z,9.31
2018-09-16T15:37:40.775Z,9.79
2018-09-16T15:40:09.967Z,10.00
2018-09-16T15:42:39.222Z,9.79
2018-09-16T15:45:08.684Z,10.20
2018-09-16T15:47:39.542Z,10.84
2018-09-16T15:50:08.603Z,10.25
2018-09-16T15:52:40.301Z,11.19
2018-09-16T15:55:09.384Z,10.61
2018-09-16T15:57:38.813Z,10.55
2018-09-16T16:00:08.007Z,9.87
2018-09-16T16:02:40.506Z,9.65
2018-09-16T16:05:09.386Z,9.87
2018-09-16T16:07:38.217Z,9.35
2018-09-16T16:10:07.391Z,9.58
2018-09-16T16:12:36.133Z,10.43
2018-09-16T16:15:05.572Z,11.30
2018-09-16T16:17:34.703Z,11.90
2018-09-16T16:20:03.562Z,13.81
2018-09-16T16:22:32.800Z,13.84
2018-09-16T16:25:01.445Z,14.49
2018-09-16T16:27:30.532Z,14.52
2018-09-16T16:29:59.973Z,15.91
2018-09-16T16:32:28.898Z,16.39
2018-09-16T16:34:58.002Z,16.66
2018-09-16T16:37:27.098Z,16.12
2018-09-16T16:39:56.113Z,16.39
2018-09-16T16:42:25.117Z,17.45
2018-09-16T16:44:54.090Z,17.22
2018-09-16T16:47:23.076Z,17.66
2018-09-16T16:49:51.956Z,18.62
2018-09-16T16:52:21.101Z,19.28
2018-09-16T16:55:53.541Z,18.93
2018-09-16T16:58:22.339Z,19.98
2018-09-16T17:00:51.505Z,20.34
2018-09-16T17:03:20.549Z,20.35
2018-09-16T17:05:49.816Z,20.86
2018-09-16T17:08:18.780Z,21.18
2018-09-16T17:10:47.593Z,21.12
2018-09-16T17:13:16.661Z,21.27
2018-09-16T17:15:45.770Z,21.74
2018-09-16T17:18:15.485Z,22.69
2018-09-16T17:20:44.500Z,22.84
2018-09-16T17:23:13.469Z,22.81
2018-09-16T17:25:42.559Z,23.64
2018-09-16T17:28:11.684Z,23.55
2018-09-16T17:30:40.540Z,24.19
2018-09-16T17:33:09.384Z,24.68
2018-09-16T17:35:38.443Z,24.30
2018-09-16T17:38:07.577Z,24.77
2018-09-16T17:40:36.683Z,25.03
2018-09-16T17:43:05.979Z,25.21
2018-09-16T17:45:34.909Z,25.54
2018-09-16T17:48:04.112Z,32.41
2018-09-16T17:50:33.035Z,24.84
2018-09-16T17:53:01.853Z,26.05
2018-09-16T17:55:31.606Z,25.51
2018-09-16T17:58:00.336Z,25.89
2018-09-16T18:00:29.218Z,26.01
2018-09-16T18:02:58.288Z,26.07
2018-09-16T18:05:27.310Z,26.49
2018-09-16T18:07:56.281Z,28.61
2018-09-16T18:10:25.802Z,32.33
2018-09-16T18:12:54.779Z,31.03
2018-09-16T18:15:23.727Z,29.42
2018-09-16T18:17:52.687Z,30.23
2018-09-16T18:20:25.644Z,33.05
2018-09-16T18:22:55.392Z,26.53
2018-09-16T18:25:24.683Z,34.14
2018-09-16T18:27:54.015Z,27.10
2018-09-16T18:30:23.591Z,28.37
2018-09-16T18:32:52.775Z,35.70
2018-09-16T18:35:21.844Z,34.85
2018-09-16T18:37:50.920Z,28.01
2018-09-16T18:40:19.797Z,27.96
2018-09-16T18:42:48.440Z,29.65
2018-09-16T18:45:17.359Z,29.26
2018-09-16T18:47:46.386Z,29.93
2018-09-16T18:50:16.482Z,30.97
2018-09-16T18:52:45.665Z,31.01
2018-09-16T18:55:14.656Z,31.90
2018-09-16T18:57:44.365Z,33.13
2018-09-16T19:00:13.134Z,33.44
2018-09-16T19:02:42.714Z,33.30
2018-09-16T19:05:11.824Z,33.60
2018-09-16T19:07:40.926Z,34.18
2018-09-16T19:10:10.085Z,34.68
2018-09-16T19:12:39.044Z,35.02
2018-09-16T19:15:07.987Z,36.55
2018-09-16T19:17:37.026Z,35.54
2018-09-16T19:20:06.195Z,35.46
2018-09-16T19:22:35.245Z,35.50
2018-09-16T19:25:04.183Z,35.74
2018-09-16T19:27:33.096Z,36.48
2018-09-16T19:30:02.638Z,38.20
2018-09-16T19:32:32.427Z,37.83
2018-09-16T19:35:01.078Z,38.49
2018-09-16T19:37:30.204Z,38.11
2018-09-16T19:39:59.229Z,36.75
2018-09-16T19:42:28.319Z,37.33
2018-09-16T19:44:57.310Z,36.91
2018-09-16T19:47:26.115Z,36.62
2018-09-16T19:49:54.826Z,37.58
2018-09-16T19:52:26.424Z,38.69
2018-09-16T19:54:55.291Z,38.12
2018-09-16T19:57:24.172Z,38.88
2018-09-16T19:59:53.166Z,38.59
2018-09-16T20:02:22.327Z,39.11
2018-09-16T20:04:51.349Z,38.71
2018-09-16T20:07:20.373Z,39.36
2018-09-16T20:09:49.237Z,39.38
2018-09-16T20:12:18.300Z,39.82
2018-09-16T20:14:47.273Z,40.39
2018-09-16T20:17:16.129Z,40.78
2018-09-16T20:19:44.813Z,41.30
2018-09-16T20:22:14.197Z,40.29
2018-09-16T20:24:43.362Z,40.63
2018-09-16T20:27:15.753Z,40.47
2018-09-16T20:29:44.986Z,41.22
2018-09-16T20:32:13.917Z,43.48
2018-09-16T20:34:45.139Z,40.46
2018-09-16T20:37:14.393Z,40.32
2018-09-16T20:39:43.641Z,43.32
2018-09-16T20:42:12.732Z,41.01
2018-09-16T20:44:41.750Z,41.41
2018-09-16T20:47:12.381Z,41.38
2018-09-16T20:49:41.330Z,42.09
2018-09-16T20:52:10.654Z,41.75
2018-09-16T20:54:40.634Z,41.82
2018-09-16T20:57:13.365Z,42.19
2018-09-16T20:59:42.605Z,41.88
2018-09-16T21:02:11.366Z,41.98
2018-09-16T21:04:40.312Z,41.47
2018-09-16T21:07:09.102Z,41.96
2018-09-16T21:09:38.017Z,42.32
2018-09-16T21:12:06.664Z,41.95
2018-09-16T21:14:35.452Z,42.19
2018-09-16T21:17:04.218Z,42.25
2018-09-16T21:20:36.548Z,42.78
2018-09-16T21:23:05.997Z,41.76
2018-09-16T21:25:35.011Z,42.34
2018-09-16T21:28:04.056Z,42.30
2018-09-16T21:30:33.150Z,43.35
2018-09-16T21:33:02.128Z,42.74
2018-09-16T21:35:32.224Z,43.01
2018-09-16T21:38:01.422Z,42.85
2018-09-16T21:40:31.108Z,42.42
2018-09-16T21:42:59.931Z,42.45
2018-09-16T21:45:28.959Z,42.74
2018-09-16T21:47:57.761Z,42.54
2018-09-16T21:50:26.861Z,43.40
2018-09-16T21:52:55.757Z,43.38
2018-09-16T21:55:24.954Z,43.30
2018-09-16T21:57:53.811Z,44.01
2018-09-16T22:00:22.540Z,43.86
2018-09-16T22:02:51.525Z,44.16
2018-09-16T22:05:20.458Z,44.58
2018-09-16T22:07:49.968Z,44.68
2018-09-16T22:10:19.108Z,44.38
2018-09-16T22:12:49.837Z,44.57
2018-09-16T22:15:18.786Z,44.94
2018-09-16T22:17:48.732Z,44.94
2018-09-16T22:20:17.716Z,45.22
2018-09-16T22:22:47.284Z,45.67
2018-09-16T22:25:16.709Z,45.45
2018-09-16T22:27:46.004Z,45.63
2018-09-16T22:30:15.232Z,45.56
2018-09-16T22:32:44.230Z,46.23
2018-09-16T22:35:13.671Z,46.89
2018-09-16T22:37:42.672Z,47.25
2018-09-16T22:40:11.601Z,46.77
2018-09-16T22:42:40.512Z,46.62
2018-09-16T22:45:10.421Z,47.30
2018-09-16T22:47:40.130Z,47.07
2018-09-16T22:50:09.116Z,47.05
2018-09-16T22:52:38.317Z,47.52
2018-09-16T22:55:07.159Z,48.07
2018-09-16T22:57:36.259Z,48.07
2018-09-16T23:00:05.658Z,48.97
2018-09-16T23:02:34.528Z,48.73
2018-09-16T23:05:03.981Z,49.38
2018-09-16T23:07:32.784Z,48.59
2018-09-16T23:10:01.509Z,48.70
2018-09-16T23:12:32.534Z,48.97
2018-09-16T23:15:02.333Z,49.36
2018-09-16T23:17:31.883Z,48.88
2018-09-16T23:20:00.906Z,49.45
2018-09-16T23:22:30.493Z,49.30
2018-09-16T23:25:00.352Z,49.62
2018-09-16T23:27:29.183Z,49.54
2018-09-16T23:29:58.987Z,51.23
2018-09-16T23:32:28.972Z,50.63
2018-09-16T23:34:58.954Z,50.70
2018-09-16T23:37:28.756Z,50.44
2018-09-16T23:39:57.839Z,50.52
2018-09-16T23:42:26.975Z,51.00
2018-09-16T23:44:56.139Z,50.76
2018-09-16T23:47:26.252Z,50.94
2018-09-16T23:52:57.001Z,52.34
2018-09-16T23:55:25.400Z,51.56
2018-09-16T23:57:53.821Z,51.84
